Time;durP1;ratioP1;P1;durP2;ratioP2;P2;SDS_P1;SDS_P2;PMS_P1;PMS_P2;Temp;Humidity;BMP_temperature;BMP_pressure;BME280_temperature;BME280_humidity;BME280_pressure;Samples;Min_cycle;Max_cycle;Signal;HPM_P1;HPM_P2
2020/12/21 00:01:59;;;;;;;9.77;6.40;;;;;;;3.71;100.00;98928.52;3777131;78;43987;-19
2020/12/21 00:07:05;;;;;;;10.23;6.30;;;;;;;3.68;100.00;98938.91;3758119;78;44046;-19
2020/12/21 00:12:11;;;;;;;9.30;6.17;;;;;;;3.70;100.00;98933.47;3766036;78;42846;-19
2020/12/21 00:17:17;;;;;;;9.93;6.10;;;;;;;3.64;100.00;98944.56;3764436;78;44009;-19
2020/12/21 00:22:22;;;;;;;11.97;6.87;;;;;;;3.60;100.00;98945.72;3779259;76;44045;-19
2020/12/21 00:27:28;;;;;;;10.63;6.27;;;;;;;3.55;100.00;98947.36;3766623;78;44492;-19
2020/12/21 00:32:34;;;;;;;11.80;6.57;;;;;;;3.44;100.00;98936.58;3770691;78;43333;-19
2020/12/21 00:37:40;;;;;;;9.40;5.90;;;;;;;3.48;100.00;98942.05;3754928;77;43709;-19
2020/12/21 00:42:46;;;;;;;9.10;5.97;;;;;;;3.44;100.00;98928.09;3774283;78;44040;-19
2020/12/21 00:47:52;;;;;;;9.13;5.80;;;;;;;3.51;100.00;98944.52;3772737;78;43318;-19
2020/12/21 00:52:58;;;;;;;9.10;5.93;;;;;;;3.52;100.00;98948.44;3776658;76;43322;-20
2020/12/21 00:58:04;;;;;;;8.97;5.57;;;;;;;3.52;100.00;98946.23;3770845;78;43681;-19
2020/12/21 01:03:10;;;;;;;9.13;5.67;;;;;;;3.48;100.00;98944.25;3765322;78;44111;-18
2020/12/21 01:08:15;;;;;;;9.10;5.40;;;;;;;3.48;100.00;98952.25;3765180;78;43701;-18
2020/12/21 01:13:21;;;;;;;7.80;5.60;;;;;;;3.48;100.00;98956.70;3764318;78;43714;-18
2020/12/21 01:18:27;;;;;;;8.17;5.90;;;;;;;3.49;100.00;98953.09;3765968;78;44045;-18
2020/12/21 01:23:34;;;;;;;8.23;5.23;;;;;;;3.48;100.00;98955.38;3771205;76;42714;-19
2020/12/21 01:28:40;;;;;;;7.83;5.40;;;;;;;3.47;100.00;98952.36;3702534;78;44030;-19
2020/12/21 01:33:46;;;;;;;8.93;5.30;;;;;;;3.45;100.00;98965.77;3764245;78;43650;-17
2020/12/21 01:38:52;;;;;;;8.33;5.17;;;;;;;3.42;100.00;98961.12;3765007;77;43968;-17
2020/12/21 01:43:59;;;;;;;8.03;5.73;;;;;;;3.28;100.00;98974.88;3760905;78;43702;-17
2020/12/21 01:49:04;;;;;;;7.17;4.53;;;;;;;3.30;100.00;98990.28;3687447;80;44038;-17
2020/12/21 01:54:11;;;;;;;7.43;4.83;;;;;;;3.23;100.00;98983.17;3680836;80;43408;-17
2020/12/21 01:59:17;;;;;;;7.43;5.03;;;;;;;3.24;100.00;98984.89;3717039;78;43374;-18
2020/12/21 02:04:24;;;;;;;7.47;5.10;;;;;;;3.20;100.00;98999.34;3773649;77;43700;-18
2020/12/21 02:09:30;;;;;;;7.60;5.20;;;;;;;3.18;100.00;99007.06;3772938;77;43401;-18
2020/12/21 02:14:36;;;;;;;7.13;4.83;;;;;;;3.17;100.00;99004.89;3775372;77;43406;-17
2020/12/21 02:19:43;;;;;;;7.80;5.27;;;;;;;3.20;100.00;99002.50;3779405;77;43462;-18
2020/12/21 02:24:49;;;;;;;7.13;4.70;;;;;;;3.17;100.00;98987.59;3772432;77;43705;-18
2020/12/21 02:29:55;;;;;;;7.87;5.20;;;;;;;3.12;100.00;98984.84;3780462;76;44045;-18
2020/12/21 02:35:01;;;;;;;8.17;5.03;;;;;;;2.99;100.00;98978.98;3775379;77;43729;-18
2020/12/21 02:40:08;;;;;;;8.23;5.20;;;;;;;2.92;100.00;98985.64;3777703;77;43338;-18
2020/12/21 02:45:13;;;;;;;7.33;4.63;;;;;;;2.81;100.00;98984.14;3773213;77;43514;-18
2020/12/21 02:50:20;;;;;;;6.97;4.50;;;;;;;2.76;100.00;98979.95;3777867;77;44063;-18
2020/12/21 02:55:26;;;;;;;7.73;5.00;;;;;;;2.71;100.00;98980.75;3772715;77;44215;-18
2020/12/21 03:00:34;;;;;;;8.23;5.37;;;;;;;2.65;100.00;98985.60;3784165;76;43146;-18
2020/12/21 03:05:39;;;;;;;8.07;5.03;;;;;;;2.62;100.00;98990.65;3765035;78;44119;-18
2020/12/21 03:10:45;;;;;;;7.30;4.90;;;;;;;2.57;100.00;98986.08;3771472;77;44482;-17
2020/12/21 03:15:51;;;;;;;9.70;5.70;;;;;;;2.54;100.00;98995.12;3773298;78;44071;-18
2020/12/21 03:20:57;;;;;;;6.67;4.47;;;;;;;2.50;100.00;98990.09;3757639;78;44063;-18
2020/12/21 03:26:03;;;;;;;7.83;5.00;;;;;;;2.48;100.00;98994.64;3757451;78;43476;-18
2020/12/21 03:31:09;;;;;;;7.43;4.73;;;;;;;2.41;100.00;98984.37;3757995;78;44094;-18
2020/12/21 03:36:15;;;;;;;7.93;4.80;;;;;;;2.38;100.00;98970.41;3771591;76;45044;-17
2020/12/21 03:41:21;;;;;;;8.70;5.37;;;;;;;2.31;100.00;98961.97;3768459;77;43677;-18
2020/12/21 03:46:27;;;;;;;7.50;4.73;;;;;;;2.20;100.00;98962.65;3775707;78;44068;-18
2020/12/21 03:51:33;;;;;;;7.67;4.53;;;;;;;2.23;100.00;98973.56;3760523;78;44066;-18
2020/12/21 03:56:40;;;;;;;10.07;5.27;;;;;;;2.34;100.00;98976.41;3758632;78;43538;-18
2020/12/21 04:01:47;;;;;;;7.43;4.83;;;;;;;2.35;100.00;98989.24;3749796;78;43658;-17
2020/12/21 04:06:53;;;;;;;9.07;4.90;;;;;;;2.31;100.00;98985.89;3764780;77;44499;-18
2020/12/21 04:11:59;;;;;;;7.67;4.83;;;;;;;2.30;100.00;98970.89;3757060;78;43314;-18
2020/12/21 04:17:04;;;;;;;8.20;4.67;;;;;;;2.30;100.00;98973.55;3753112;77;44049;-18
2020/12/21 04:22:10;;;;;;;7.03;4.80;;;;;;;2.27;100.00;98973.77;3757407;78;44047;-18
2020/12/21 04:27:16;;;;;;;8.33;5.17;;;;;;;2.22;100.00;98968.73;3747965;79;44008;-18
2020/12/21 04:32:22;;;;;;;8.77;5.27;;;;;;;2.21;100.00;98964.36;3757546;78;43696;-18
2020/12/21 04:37:29;;;;;;;8.47;5.33;;;;;;;2.12;100.00;98957.80;3759397;77;43708;-18
2020/12/21 04:42:47;;;;;;;8.30;5.13;;;;;;;2.13;100.00;98959.52;3752199;77;42844;-18
2020/12/21 04:47:52;;;;;;;9.00;5.33;;;;;;;2.04;100.00;98966.73;3754314;78;43423;-18
2020/12/21 04:53:01;;;;;;;8.60;4.93;;;;;;;1.98;100.00;98965.75;3755767;78;44069;-18
2020/12/21 04:58:07;;;;;;;10.80;5.30;;;;;;;1.92;100.00;98970.97;3751416;78;44375;-18
2020/12/21 05:03:13;;;;;;;6.80;4.60;;;;;;;1.96;100.00;98963.20;3751334;78;44030;-17
2020/12/21 05:08:22;;;;;;;8.30;4.80;;;;;;;1.93;100.00;98956.73;3757540;77;43396;-17
2020/12/21 05:13:28;;;;;;;9.00;5.20;;;;;;;1.94;100.00;98966.91;3753456;78;44387;-17
2020/12/21 05:18:35;;;;;;;8.13;5.40;;;;;;;1.98;100.00;98959.98;3751260;79;43435;-17
2020/12/21 05:23:55;;;;;;;7.70;5.27;;;;;;;1.97;100.00;98964.05;3750686;78;43703;-17
2020/12/21 05:28:49;;;;;;;8.03;5.00;;;;;;;1.95;100.00;98969.92;3739302;78;43722;-17
2020/12/21 05:33:55;;;;;;;8.27;5.27;;;;;;;1.89;100.00;98964.99;3750656;79;43323;-17
2020/12/21 05:39:04;;;;;;;8.53;5.50;;;;;;;1.82;100.00;98968.00;3755150;77;43701;-17
2020/12/21 05:44:10;;;;;;;9.27;5.30;;;;;;;1.88;100.00;98963.28;3778248;77;43654;-17
2020/12/21 05:49:16;;;;;;;8.30;5.37;;;;;;;1.90;100.00;98958.25;3752966;78;44048;-19
2020/12/21 05:54:22;;;;;;;9.23;5.63;;;;;;;1.88;100.00;98947.34;3751254;77;43796;-19
2020/12/21 05:59:29;;;;;;;9.40;6.00;;;;;;;1.88;100.00;98948.67;3755756;78;43457;-19
2020/12/21 06:04:37;;;;;;;9.50;6.13;;;;;;;1.78;100.00;98957.20;3764388;78;43234;-19
2020/12/21 06:09:47;;;;;;;9.03;5.93;;;;;;;1.79;100.00;98958.91;3769845;78;44161;-16
2020/12/21 06:14:56;;;;;;;9.80;6.17;;;;;;;1.95;100.00;98965.94;3773706;76;43329;-17
2020/12/21 06:20:09;;;;;;;10.43;6.47;;;;;;;2.11;100.00;98964.06;3769155;78;43163;-17
2020/12/21 06:25:23;;;;;;;9.67;5.80;;;;;;;2.39;100.00;98973.00;3766026;78;43701;-17
2020/12/21 06:30:32;;;;;;;9.53;5.80;;;;;;;2.32;100.00;98963.67;3775242;78;43365;-17
2020/12/21 06:35:44;;;;;;;8.97;5.50;;;;;;;2.23;100.00;98968.24;3769625;78;43710;-17
2020/12/21 06:40:50;;;;;;;8.50;5.50;;;;;;;2.09;100.00;98965.95;3777740;77;43686;-17
2020/12/21 06:45:55;;;;;;;7.93;5.47;;;;;;;1.97;100.00;98977.33;3773057;76;43460;-17
2020/12/21 06:51:11;;;;;;;9.43;5.90;;;;;;;1.87;100.00;98974.86;3767615;78;42922;-17
2020/12/21 06:56:17;;;;;;;10.93;6.03;;;;;;;1.89;100.00;98959.68;3768776;78;44014;-17
2020/12/21 07:01:26;;;;;;;8.07;5.60;;;;;;;1.98;100.00;98965.30;3776910;78;42846;-17
2020/12/21 07:06:31;;;;;;;9.00;5.50;;;;;;;2.02;100.00;98965.96;3759328;78;43705;-17
2020/12/21 07:11:40;;;;;;;9.10;5.40;;;;;;;1.89;100.00;98961.01;3769131;78;43698;-17
2020/12/21 07:16:46;;;;;;;9.03;5.63;;;;;;;2.14;100.00;98969.20;3754009;77;43698;-17
2020/12/21 07:21:54;;;;;;;9.37;5.90;;;;;;;2.10;100.00;98963.68;3751055;78;44034;-17
2020/12/21 07:27:01;;;;;;;9.80;5.60;;;;;;;2.12;100.00;98971.55;3750725;78;44047;-17
2020/12/21 07:32:08;;;;;;;8.70;5.57;;;;;;;2.14;100.00;98975.84;3751677;78;43990;-17
2020/12/21 07:37:15;;;;;;;9.67;5.57;;;;;;;2.20;100.00;98981.72;3766609;77;44066;-17
2020/12/21 07:42:24;;;;;;;9.87;5.93;;;;;;;2.23;100.00;98988.19;3775613;77;44652;-17
2020/12/21 07:47:34;;;;;;;7.93;5.20;;;;;;;2.18;100.00;98983.61;3760006;77;44452;-17
2020/12/21 07:52:40;;;;;;;9.20;5.13;;;;;;;2.22;100.00;98982.02;3768168;77;43689;-17
2020/12/21 07:57:47;;;;;;;8.33;5.53;;;;;;;2.31;100.00;98986.77;3752235;78;44054;-17
2020/12/21 08:02:55;;;;;;;9.57;5.50;;;;;;;2.20;100.00;98987.91;3757143;78;43990;-17
2020/12/21 08:08:04;;;;;;;9.30;5.67;;;;;;;2.14;100.00;98989.13;3769809;77;42729;-18
2020/12/21 08:13:20;;;;;;;8.97;5.83;;;;;;;2.12;100.00;98984.84;3793194;76;44550;-18
2020/12/21 08:18:27;;;;;;;11.00;6.00;;;;;;;2.10;100.00;98987.60;3802375;76;44076;-18
2020/12/21 08:23:33;;;;;;;10.80;6.00;;;;;;;2.19;100.00;98983.98;3724877;77;44420;-18
2020/12/21 08:28:39;;;;;;;10.30;6.13;;;;;;;2.26;100.00;98985.34;3817919;76;43687;-18
2020/12/21 08:34:00;;;;;;;8.37;5.80;;;;;;;2.30;100.00;98978.87;3734436;79;44062;-18
2020/12/21 08:39:15;;;;;;;8.20;5.47;;;;;;;2.41;100.00;98980.88;3818489;76;44071;-17
2020/12/21 08:44:23;;;;;;;10.87;6.20;;;;;;;2.51;100.00;98979.83;3723897;77;43995;-17
2020/12/21 08:49:30;;;;;;;10.73;5.97;;;;;;;2.65;100.00;98970.48;3764431;77;44002;-17
2020/12/21 08:54:36;;;;;;;11.90;6.50;;;;;;;2.71;100.00;98975.42;3766518;76;44003;-17
2020/12/21 08:59:43;;;;;;;12.90;6.77;;;;;;;2.77;100.00;98976.35;3773465;78;44004;-17
2020/12/21 09:04:50;;;;;;;8.60;5.90;;;;;;;2.86;100.00;98986.05;3777364;77;43539;-17
2020/12/21 09:09:58;;;;;;;9.53;5.80;;;;;;;2.89;100.00;98984.04;3779986;77;44661;-17
2020/12/21 09:15:04;;;;;;;7.53;5.43;;;;;;;3.04;100.00;98966.22;3775957;77;43329;-17
2020/12/21 09:20:10;;;;;;;8.03;5.70;;;;;;;3.21;100.00;98972.25;3768438;78;44027;-17
2020/12/21 09:25:18;;;;;;;8.20;5.77;;;;;;;3.36;100.00;98972.55;3772571;76;43463;-17
2020/12/21 09:30:24;;;;;;;9.50;5.97;;;;;;;3.50;100.00;98977.44;3697805;79;43347;-17
2020/12/21 09:35:30;;;;;;;8.70;5.40;;;;;;;3.58;100.00;98987.59;3755584;78;43307;-17
2020/12/21 09:40:36;;;;;;;8.70;5.50;;;;;;;3.61;100.00;98984.23;3771663;78;44087;-17
2020/12/21 09:45:42;;;;;;;8.57;5.67;;;;;;;3.68;100.00;98988.22;3777640;77;44034;-17
2020/12/21 09:50:48;;;;;;;6.83;5.20;;;;;;;3.79;100.00;98975.97;3771561;78;44391;-17
2020/12/21 09:55:54;;;;;;;8.80;5.07;;;;;;;3.87;100.00;98972.78;3764370;78;43462;-17
2020/12/21 10:01:00;;;;;;;7.07;5.07;;;;;;;4.04;100.00;98970.29;3762956;76;44066;-17
2020/12/21 10:06:10;;;;;;;10.17;5.60;;;;;;;4.26;100.00;98963.83;3763679;78;43353;-17
2020/12/21 10:11:19;;;;;;;7.83;5.40;;;;;;;4.44;100.00;98947.00;3779623;77;44047;-17
2020/12/21 10:16:26;;;;;;;8.63;5.40;;;;;;;4.56;100.00;98944.42;3781935;77;43294;-17
2020/12/21 10:21:31;;;;;;;8.33;5.27;;;;;;;4.66;100.00;98940.13;3781210;77;43326;-17
2020/12/21 10:26:40;;;;;;;7.40;5.30;;;;;;;4.82;100.00;98935.85;3782965;77;44030;-18
2020/12/21 10:31:46;;;;;;;7.40;5.57;;;;;;;4.94;100.00;98933.63;3774101;76;43729;-18
2020/12/21 10:36:52;;;;;;;8.17;5.47;;;;;;;5.04;100.00;98928.93;3778786;77;43365;-17
2020/12/21 10:41:58;;;;;;;9.17;5.83;;;;;;;5.11;100.00;98925.32;3801741;76;43714;-17
2020/12/21 10:47:04;;;;;;;10.20;5.73;;;;;;;5.28;100.00;98914.70;3728016;79;43713;-17
2020/12/21 10:52:10;;;;;;;8.33;5.73;;;;;;;5.55;100.00;98909.09;3825177;76;43611;-17
2020/12/21 10:57:17;;;;;;;8.67;5.20;;;;;;;5.59;100.00;98913.70;3819915;76;44152;-17
2020/12/21 11:02:23;;;;;;;9.27;5.37;;;;;;;5.64;100.00;98896.84;3720056;78;43688;-20
2020/12/21 11:07:31;;;;;;;7.87;5.60;;;;;;;5.62;100.00;98882.73;3676816;80;43980;-17
2020/12/21 11:12:39;;;;;;;9.10;5.60;;;;;;;5.65;100.00;98875.83;3701416;79;43345;-18
2020/12/21 11:17:46;;;;;;;9.90;6.00;;;;;;;5.81;100.00;98879.03;3697157;79;44181;-18
2020/12/21 11:22:51;;;;;;;9.17;5.53;;;;;;;5.97;100.00;98875.13;3622762;80;44512;-18
2020/12/21 11:27:59;;;;;;;10.20;5.60;;;;;;;5.94;100.00;98867.38;3622312;80;43677;-17
2020/12/21 11:33:05;;;;;;;7.77;5.70;;;;;;;6.02;100.00;98860.95;3610712;81;44027;-18
2020/12/21 11:38:15;;;;;;;7.23;5.07;;;;;;;6.11;100.00;98852.19;3753598;77;44006;-18
2020/12/21 11:43:20;;;;;;;7.73;4.70;;;;;;;6.29;100.00;98853.05;3753053;78;43376;-17
2020/12/21 11:48:26;;;;;;;9.03;5.40;;;;;;;6.41;100.00;98843.16;3743310;78;43286;-18
2020/12/21 11:53:32;;;;;;;8.50;4.50;;;;;;;6.60;100.00;98842.52;3752231;78;44079;-17
2020/12/21 11:58:38;;;;;;;8.97;4.80;;;;;;;6.60;100.00;98837.16;3726887;76;311810;-18
2020/12/21 12:03:45;;;;;;;10.13;4.83;;;;;;;6.57;100.00;98826.70;3718716;78;43324;-17
2020/12/21 12:08:53;;;;;;;7.77;4.60;;;;;;;6.57;100.00;98822.69;3702363;78;44012;-17
2020/12/21 12:13:58;;;;;;;6.40;4.33;;;;;;;6.61;100.00;98822.80;3721111;78;44073;-18
2020/12/21 12:19:04;;;;;;;8.20;4.73;;;;;;;6.57;100.00;98806.63;3708842;78;44105;-19
2020/12/21 12:24:10;;;;;;;8.03;4.20;;;;;;;6.58;100.00;98804.30;3689584;79;42907;-18
2020/12/21 12:29:16;;;;;;;9.57;3.97;;;;;;;6.61;100.00;98802.22;3687513;79;43690;-18
2020/12/21 12:34:22;;;;;;;8.67;4.60;;;;;;;6.71;100.00;98805.00;3710401;78;43444;-18
2020/12/21 12:39:28;;;;;;;8.20;4.47;;;;;;;6.68;100.00;98793.70;3675537;78;44086;-18
2020/12/21 12:44:34;;;;;;;7.23;4.60;;;;;;;6.63;100.00;98799.44;3704177;78;43274;-18
2020/12/21 12:49:40;;;;;;;7.50;4.70;;;;;;;6.58;100.00;98797.61;3701319;79;43285;-18
2020/12/21 12:54:46;;;;;;;7.23;4.43;;;;;;;6.67;100.00;98794.17;3701331;79;43269;-18
2020/12/21 12:59:53;;;;;;;7.27;4.27;;;;;;;6.62;100.00;98791.04;3666691;79;44049;-17
2020/12/21 13:05:01;;;;;;;8.10;4.13;;;;;;;6.66;100.00;98799.66;3706257;78;43365;-17
2020/12/21 13:10:08;;;;;;;7.20;4.27;;;;;;;6.71;100.00;98796.97;3753396;77;44121;-18
2020/12/21 13:15:14;;;;;;;8.37;4.60;;;;;;;6.88;100.00;98791.54;3753575;78;44066;-17
2020/12/21 13:20:21;;;;;;;6.20;3.80;;;;;;;7.09;100.00;98767.45;3754129;77;43155;-17
2020/12/21 13:25:28;;;;;;;7.03;3.43;;;;;;;7.35;100.00;98763.00;3762638;78;43723;-17
2020/12/21 13:30:37;;;;;;;4.77;3.27;;;;;;;7.42;100.00;98765.17;3737195;78;44026;-19
2020/12/21 13:35:44;;;;;;;6.50;3.10;;;;;;;7.58;100.00;98764.22;3737443;78;43739;-18
2020/12/21 13:40:50;;;;;;;6.97;3.50;;;;;;;7.68;100.00;98755.72;3696759;78;43766;-18
2020/12/21 13:45:56;;;;;;;6.63;3.00;;;;;;;7.93;100.00;98748.19;3711450;78;43214;-19
2020/12/21 13:51:03;;;;;;;3.70;2.50;;;;;;;8.27;100.00;98738.92;3705440;79;44062;-18
2020/12/21 13:56:09;;;;;;;3.20;2.53;;;;;;;8.60;100.00;98725.64;3637083;80;43090;-18
2020/12/21 14:01:17;;;;;;;4.10;2.43;;;;;;;8.87;100.00;98712.47;3704806;79;42945;-17
2020/12/21 14:06:23;;;;;;;4.17;2.30;;;;;;;8.86;100.00;98704.92;3708153;78;43731;-18
2020/12/21 14:11:29;;;;;;;3.00;2.17;;;;;;;8.84;100.00;98702.88;3739977;78;43575;-17
2020/12/21 14:16:35;;;;;;;4.17;2.50;;;;;;;8.58;100.00;98712.84;3741584;77;43370;-17
2020/12/21 14:21:44;;;;;;;3.10;2.20;;;;;;;8.31;100.00;98702.77;3736759;78;44006;-18
2020/12/21 14:26:50;;;;;;;3.00;2.30;;;;;;;7.99;100.00;98696.65;3735980;78;43334;-18
2020/12/21 14:31:56;;;;;;;5.20;2.50;;;;;;;7.74;100.00;98693.12;3740870;78;44104;-18
2020/12/21 14:37:03;;;;;;;4.40;2.43;;;;;;;7.37;100.00;98697.22;3737602;78;43722;-17
2020/12/21 14:42:10;;;;;;;4.07;2.33;;;;;;;7.06;100.00;98691.35;3736874;79;44670;-17
2020/12/21 14:47:20;;;;;;;3.47;3.00;;;;;;;6.88;100.00;98690.27;3743929;77;44056;-18
2020/12/21 14:52:27;;;;;;;5.93;3.20;;;;;;;6.73;100.00;98691.06;3740865;78;43714;-17
2020/12/21 14:57:34;;;;;;;5.03;3.10;;;;;;;6.55;100.00;98687.63;3736030;78;44063;-18
2020/12/21 15:02:40;;;;;;;4.63;3.60;;;;;;;6.40;100.00;98679.07;3738207;79;44103;-18
2020/12/21 15:07:45;;;;;;;5.70;3.10;;;;;;;6.23;100.00;98680.95;3736340;78;43718;-18
2020/12/21 15:12:51;;;;;;;4.73;3.03;;;;;;;5.99;100.00;98672.60;3697386;79;43962;-18
2020/12/21 15:17:57;;;;;;;6.93;3.10;;;;;;;5.97;100.00;98670.53;3705100;79;43713;-19
2020/12/21 15:23:03;;;;;;;4.90;2.90;;;;;;;5.80;100.00;98662.09;3703151;79;43685;-18
2020/12/21 15:28:09;;;;;;;5.10;3.60;;;;;;;5.71;100.00;98648.11;3688685;79;43453;-19
2020/12/21 15:33:16;;;;;;;6.60;3.60;;;;;;;5.55;100.00;98645.83;3701183;79;44084;-18
2020/12/21 15:38:22;;;;;;;4.87;3.33;;;;;;;5.40;100.00;98646.11;3702005;79;44039;-18
2020/12/21 15:43:28;;;;;;;5.93;4.00;;;;;;;5.30;100.00;98640.28;3712314;79;43336;-18
2020/12/21 15:48:36;;;;;;;6.67;4.10;;;;;;;5.18;100.00;98626.06;3681491;79;44223;-18
2020/12/21 15:53:42;;;;;;;7.13;4.47;;;;;;;5.03;100.00;98637.48;3681714;79;44013;-19
2020/12/21 15:58:49;;;;;;;7.10;4.70;;;;;;;4.96;100.00;98625.09;3689666;79;43689;-18
2020/12/21 16:03:54;;;;;;;7.80;5.13;;;;;;;4.87;100.00;98620.02;3657785;79;44065;-18
2020/12/21 16:09:01;;;;;;;9.00;5.40;;;;;;;4.87;100.00;98605.34;3712614;78;44041;-18
2020/12/21 16:14:08;;;;;;;9.83;6.27;;;;;;;4.90;100.00;98609.08;3740087;78;43365;-18
2020/12/21 16:19:15;;;;;;;11.80;6.17;;;;;;;4.89;100.00;98596.69;3741126;78;44050;-18
2020/12/21 16:24:22;;;;;;;9.83;6.33;;;;;;;4.83;100.00;98594.52;3744887;77;44046;-18
2020/12/21 16:29:28;;;;;;;12.30;6.03;;;;;;;4.86;100.00;98596.09;3735829;78;43665;-19
2020/12/21 16:34:35;;;;;;;9.10;5.93;;;;;;;4.86;100.00;98597.42;3741450;78;43614;-18
2020/12/21 16:39:40;;;;;;;8.97;5.83;;;;;;;5.00;100.00;98596.36;3736880;78;44056;-18
2020/12/21 16:44:46;;;;;;;9.80;4.83;;;;;;;5.02;100.00;98580.57;3743550;77;44047;-17
2020/12/21 16:49:53;;;;;;;9.47;5.10;;;;;;;5.06;100.00;98568.66;3725929;78;44766;-17
2020/12/21 16:54:59;;;;;;;7.60;4.73;;;;;;;5.12;100.00;98556.62;3737655;77;44462;-17
2020/12/21 17:00:07;;;;;;;6.10;4.13;;;;;;;5.16;100.00;98550.08;3734478;78;43156;-18
2020/12/21 17:05:14;;;;;;;9.20;5.00;;;;;;;5.20;100.00;98556.02;3740155;78;43688;-18
2020/12/21 17:10:23;;;;;;;8.40;4.77;;;;;;;5.19;100.00;98550.31;3745259;77;43345;-19
2020/12/21 17:15:29;;;;;;;6.23;4.37;;;;;;;5.23;100.00;98561.95;3778197;77;43728;-17
2020/12/21 17:20:35;;;;;;;8.00;5.13;;;;;;;5.25;100.00;98560.02;3773097;77;43607;-18
2020/12/21 17:25:44;;;;;;;7.97;4.73;;;;;;;5.24;100.00;98562.32;3780904;77;43667;-19
2020/12/21 17:30:50;;;;;;;7.60;4.93;;;;;;;5.21;100.00;98565.27;3769468;76;43341;-19
2020/12/21 17:35:57;;;;;;;8.00;4.67;;;;;;;5.21;100.00;98551.04;3738923;77;43679;-17
2020/12/21 17:41:03;;;;;;;7.37;4.80;;;;;;;5.22;100.00;98540.25;3748296;77;43317;-19
2020/12/21 17:46:08;;;;;;;7.37;5.00;;;;;;;5.22;100.00;98539.38;3695317;79;43292;-20
2020/12/21 17:51:14;;;;;;;8.13;5.40;;;;;;;5.21;100.00;98529.20;3595542;81;44147;-18
2020/12/21 17:56:20;;;;;;;8.53;5.50;;;;;;;5.20;100.00;98526.64;3655833;80;43689;-18
2020/12/21 18:01:26;;;;;;;7.83;5.50;;;;;;;5.15;100.00;98515.49;3754028;77;44797;-18
2020/12/21 18:06:32;;;;;;;8.77;5.80;;;;;;;5.21;100.00;98513.17;3745690;77;43397;-19
2020/12/21 18:11:39;;;;;;;9.40;6.33;;;;;;;5.20;100.00;98482.09;3740095;77;44061;-17
2020/12/21 18:16:47;;;;;;;10.90;6.23;;;;;;;5.24;100.00;98471.50;3717947;79;43693;-18
2020/12/21 18:21:53;;;;;;;9.50;6.33;;;;;;;5.28;100.00;98472.59;3622947;81;43338;-18
2020/12/21 18:26:59;;;;;;;11.20;6.67;;;;;;;5.27;100.00;98454.86;3721827;78;43494;-18
2020/12/21 18:32:05;;;;;;;9.53;6.73;;;;;;;5.20;100.00;98435.83;3631654;80;44071;-18
2020/12/21 18:37:11;;;;;;;9.97;6.13;;;;;;;5.19;100.00;98440.34;3716994;79;43001;-18
2020/12/21 18:42:21;;;;;;;10.90;6.40;;;;;;;5.16;100.00;98441.91;3631955;81;43712;-18
2020/12/21 18:47:31;;;;;;;12.70;6.80;;;;;;;5.18;100.00;98433.30;3715063;78;43677;-18
2020/12/21 18:52:37;;;;;;;9.20;6.50;;;;;;;5.23;100.00;98429.73;3718145;79;43682;-18
2020/12/21 18:57:43;;;;;;;10.70;6.87;;;;;;;5.27;100.00;98422.81;3703097;79;43470;-19
2020/12/21 19:02:49;;;;;;;9.77;6.10;;;;;;;5.23;100.00;98417.72;3679421;79;43686;-18
2020/12/21 19:07:56;;;;;;;9.50;6.10;;;;;;;5.20;100.00;98392.63;3673446;79;43039;-17
2020/12/21 19:13:03;;;;;;;9.77;6.00;;;;;;;5.22;100.00;98389.34;3710752;79;43740;-18
2020/12/21 19:18:09;;;;;;;10.47;5.77;;;;;;;5.22;100.00;98379.99;3717298;78;44018;-19
2020/12/21 19:23:15;;;;;;;8.43;5.57;;;;;;;5.20;100.00;98373.92;3723381;79;44037;-19
2020/12/21 19:28:22;;;;;;;9.80;6.10;;;;;;;5.20;100.00;98373.92;3699493;79;43401;-18
2020/12/21 19:33:28;;;;;;;8.67;5.87;;;;;;;5.21;100.00;98355.59;3687094;79;44021;-19
2020/12/21 19:38:34;;;;;;;8.47;5.63;;;;;;;5.22;100.00;98341.27;3684093;78;43729;-18
2020/12/21 19:43:41;;;;;;;8.33;5.83;;;;;;;5.32;100.00;98328.46;3690147;78;43713;-18
2020/12/21 19:48:47;;;;;;;8.80;5.40;;;;;;;5.27;100.00;98313.30;3688921;78;43762;-20
2020/12/21 19:53:55;;;;;;;9.10;5.47;;;;;;;5.36;100.00;98302.69;3686909;79;43271;-20
2020/12/21 19:59:03;;;;;;;7.80;5.10;;;;;;;5.45;100.00;98298.38;3686399;79;43251;-20
2020/12/21 20:04:15;;;;;;;8.63;5.27;;;;;;;5.48;100.00;98287.91;3686512;79;43198;-20
2020/12/21 20:09:24;;;;;;;7.13;4.70;;;;;;;5.58;100.00;98267.94;3682812;78;44104;-20
2020/12/21 20:14:30;;;;;;;8.20;4.33;;;;;;;5.59;100.00;98253.09;3686389;79;43112;-21
2020/12/21 20:19:38;;;;;;;8.20;4.67;;;;;;;5.66;100.00;98226.67;3678606;79;43939;-20
2020/12/21 20:24:44;;;;;;;8.23;4.53;;;;;;;5.73;100.00;98218.46;3688935;79;44159;-20
2020/12/21 20:29:49;;;;;;;6.60;4.30;;;;;;;5.75;100.00;98237.89;3733788;77;43703;-20
2020/12/21 20:34:55;;;;;;;7.03;4.57;;;;;;;5.74;100.00;98248.73;3740194;78;42983;-20
2020/12/21 20:40:05;;;;;;;5.40;4.07;;;;;;;5.76;100.00;98258.30;3738354;77;44058;-20
2020/12/21 20:45:11;;;;;;;7.13;4.80;;;;;;;5.81;100.00;98249.39;3643844;80;43699;-20
2020/12/21 20:50:17;;;;;;;7.90;4.70;;;;;;;5.89;100.00;98250.03;3627860;80;43038;-20
2020/12/21 20:55:23;;;;;;;6.83;3.90;;;;;;;5.88;100.00;98228.28;3749140;79;44440;-20
2020/12/21 21:00:31;;;;;;;5.93;3.80;;;;;;;5.93;100.00;98198.48;3741009;77;44518;-20
2020/12/21 21:05:37;;;;;;;5.90;3.80;;;;;;;6.01;100.00;98186.13;3748623;78;43702;-20
2020/12/21 21:10:43;;;;;;;6.20;3.80;;;;;;;6.09;100.00;98171.23;3740614;77;44069;-20
2020/12/21 21:15:50;;;;;;;4.90;3.37;;;;;;;6.22;100.00;98185.67;3750739;77;44015;-21
2020/12/21 21:20:57;;;;;;;5.13;3.80;;;;;;;6.31;100.00;98191.04;3750710;77;42900;-19
2020/12/21 21:26:04;;;;;;;5.70;3.87;;;;;;;6.34;100.00;98179.20;3744124;78;44012;-20
2020/12/21 21:31:11;;;;;;;5.47;3.93;;;;;;;6.41;100.00;98166.94;3739881;77;44045;-20
2020/12/21 21:36:17;;;;;;;6.27;3.47;;;;;;;6.51;100.00;98174.14;3744065;79;43987;-20
2020/12/21 21:41:22;;;;;;;5.67;3.53;;;;;;;6.55;100.00;98176.87;3748599;77;44038;-20
2020/12/21 21:46:29;;;;;;;5.13;3.73;;;;;;;6.60;100.00;98173.28;3744685;77;43669;-20
2020/12/21 21:51:35;;;;;;;6.63;3.90;;;;;;;6.59;100.00;98171.59;3750193;77;44888;-20
2020/12/21 21:56:43;;;;;;;6.10;3.80;;;;;;;6.59;100.00;98163.56;3746886;78;44204;-20
2020/12/21 22:01:49;;;;;;;5.50;3.77;;;;;;;6.55;100.00;98155.45;3750382;77;43359;-20
2020/12/21 22:06:55;;;;;;;5.13;3.77;;;;;;;6.57;100.00;98157.50;3744343;78;44465;-20
2020/12/21 22:12:02;;;;;;;6.27;4.10;;;;;;;6.55;100.00;98151.44;3754849;77;43448;-20
2020/12/21 22:17:10;;;;;;;6.47;3.90;;;;;;;6.62;100.00;98140.53;3762732;77;44046;-20
2020/12/21 22:22:16;;;;;;;6.57;4.27;;;;;;;6.58;100.00;98114.55;3770193;77;43762;-20
2020/12/21 22:27:23;;;;;;;6.37;4.10;;;;;;;6.64;100.00;98111.80;3761331;78;43686;-21
2020/12/21 22:32:29;;;;;;;6.03;4.23;;;;;;;6.68;100.00;98099.79;3767967;77;43690;-20
2020/12/21 22:37:35;;;;;;;6.17;4.27;;;;;;;6.73;100.00;98105.57;3759988;78;44578;-20
2020/12/21 22:42:42;;;;;;;7.13;4.53;;;;;;;6.75;100.00;98095.56;3772893;77;44055;-20
2020/12/21 22:47:48;;;;;;;5.87;4.60;;;;;;;6.76;100.00;98090.53;3763127;77;44066;-19
2020/12/21 22:52:54;;;;;;;9.23;5.67;;;;;;;6.76;100.00;98076.31;3768162;77;43369;-19
2020/12/21 22:58:00;;;;;;;6.43;4.77;;;;;;;6.76;100.00;98076.31;3762282;77;43466;-19
2020/12/21 23:03:05;;;;;;;6.97;5.13;;;;;;;6.77;100.00;98082.85;3771056;77;44031;-18
2020/12/21 23:08:11;;;;;;;7.43;4.83;;;;;;;6.79;100.00;98079.54;3764913;77;44504;-20
2020/12/21 23:13:17;;;;;;;7.53;5.30;;;;;;;6.81;100.00;98066.02;3734681;77;44548;-20
2020/12/21 23:18:23;;;;;;;7.27;5.10;;;;;;;6.79;100.00;98074.69;3681195;79;43713;-20
2020/12/21 23:23:29;;;;;;;7.73;5.20;;;;;;;6.83;100.00;98065.87;3680705;79;43146;-20
2020/12/21 23:28:35;;;;;;;7.63;4.93;;;;;;;6.78;100.00;98043.04;3671527;79;44061;-20
2020/12/21 23:33:41;;;;;;;7.30;5.57;;;;;;;6.81;100.00;98024.52;3676534;80;44034;-20
2020/12/21 23:38:47;;;;;;;8.17;5.30;;;;;;;6.91;100.00;98021.78;3673238;79;43717;-20
2020/12/21 23:43:54;;;;;;;7.50;5.53;;;;;;;6.92;100.00;98020.32;3676118;80;43706;-20
2020/12/21 23:49:00;;;;;;;7.63;5.10;;;;;;;6.94;100.00;98013.46;3682257;79;42809;-20
2020/12/21 23:54:05;;;;;;;8.50;5.37;;;;;;;7.05;100.00;98014.60;3676746;79;44477;-20
2020/12/21 23:59:12;;;;;;;7.67;5.73;;;;;;;7.04;100.00;98020.95;3679098;79;44113;-20
